Airfield :
LOGIN :

Register | Disclaimer

   EN    FR    IT 

 










Legend :    VFR   Marginal VFR   IFR   Intensive IFR   Very Intensive IFR
Visi :
Ceiling :
>= 8 km
>= 3000ft
5 to 8 km
1000 to 3000 ft
1500m to 5 km
500 to 1000 ft
800 to 1500m
200 to 500 ft
< 800m
< 200 ft
Symbols :   Thunderstorms  Fog  Heavy snow  Heavy precipitations  Wind > 20 kt
SIGMETs :     Misc.  Thunderstorms  Icing  Turbulence  Mountain Waves  Volcanic Ashes







- Airport Elevation : 308 ft


ESCF - Malmen AB

CURRENT METAR :
  • 100020Z AUTO 26008KT 9999 BKN044/// 01/M00 Q0989

EXPIRED METARs :
  • 092350Z AUTO 27007KT 9999 BKN044/// 00/M00 Q0989
  • 092320Z AUTO 26006KT 9999 FEW014/// M01/M01 Q0989
  • 092250Z AUTO 24005KT 9999 FEW016/// M01/M02 Q0989
  • 092220Z AUTO 25005KT 9999 FEW017/// BKN140/// 00/M01 Q0988
  • 092150Z AUTO 26006KT 9999 OVC140/// 00/M01 Q0988

Expired Forecast.
No reported NOTAMs for that airfield.



MET'MAP, your aeronautical weather chart ! - Copyright ORBIFLY December 2007 - Disclaimer

ORBIFLY MET'MAP TEAM :

Programming & Development : Alexandra Zaïnal
Concept & Development : Baudouin d'Aumeries
Co-Development & Prog : Marc-Olivier Méhu
Technical & hardware support : Manuel Goepfert

Contact : metmap@orbifly.com




SOURCES & CREDITS :

   NOAA